createdAt,value
2018-08-04T05:10:42.238Z,82.90
2018-08-04T05:15:44.929Z,79.40
2018-08-04T05:20:47.634Z,76.20
2018-08-04T05:25:50.417Z,74.20
2018-08-04T05:30:53.693Z,74.00
2018-08-04T05:35:56.632Z,72.70
2018-08-04T05:40:59.357Z,72.90
2018-08-04T05:46:02.122Z,71.80
2018-08-04T05:51:05.105Z,71.80
2018-08-04T05:56:09.927Z,71.50
2018-08-04T06:01:12.641Z,71.10
2018-08-04T06:06:15.338Z,71.00
2018-08-04T06:11:18.061Z,70.20
2018-08-04T06:16:20.821Z,69.70
2018-08-04T06:21:23.549Z,68.20
2018-08-04T06:26:26.273Z,67.70
2018-08-04T06:31:29.015Z,68.30
2018-08-04T06:36:31.776Z,65.60
2018-08-04T06:41:34.701Z,66.10
2018-08-04T06:46:37.433Z,65.10
2018-08-04T06:51:40.210Z,61.70
2018-08-04T06:56:42.949Z,62.90
2018-08-04T07:01:45.705Z,62.40
2018-08-04T07:06:48.461Z,62.30
2018-08-04T07:11:51.180Z,60.90
2018-08-04T07:16:53.909Z,61.10
2018-08-04T07:21:56.649Z,59.80
2018-08-04T07:26:59.393Z,59.00
2018-08-04T07:32:02.145Z,57.90
2018-08-04T07:37:05.569Z,57.10
2018-08-04T07:42:08.298Z,57.10
2018-08-04T07:47:11.076Z,55.80
2018-08-04T07:52:13.810Z,55.90
2018-08-04T07:57:16.554Z,55.80
2018-08-04T08:02:19.337Z,55.40
2018-08-04T08:07:23.797Z,54.80
2018-08-04T08:12:26.683Z,54.60
2018-08-04T08:17:29.463Z,54.70
2018-08-04T08:22:40.156Z,54.10
2018-08-04T08:27:42.877Z,53.40
2018-08-04T08:32:45.668Z,54.70
2018-08-04T08:37:48.453Z,53.40
2018-08-04T08:42:51.178Z,52.90
2018-08-04T08:47:53.909Z,52.70
2018-08-04T08:52:56.722Z,52.80
2018-08-04T08:57:59.409Z,51.70
2018-08-04T09:03:02.150Z,52.00
2018-08-04T09:08:05.064Z,51.60
2018-08-04T09:13:07.781Z,51.40
2018-08-04T09:18:10.521Z,51.40
2018-08-04T09:23:13.334Z,50.80
2018-08-04T09:28:16.094Z,50.70
2018-08-04T09:33:18.867Z,50.00
2018-08-04T09:38:21.609Z,50.30
2018-08-04T09:43:24.353Z,49.40
2018-08-04T09:48:27.110Z,49.20
2018-08-04T09:53:29.825Z,48.50
2018-08-04T09:58:32.557Z,48.60
2018-08-04T10:03:35.275Z,48.50
2018-08-04T10:08:38.010Z,47.60
2018-08-04T10:13:40.725Z,47.10
2018-08-04T10:18:43.613Z,46.00
2018-08-04T10:23:46.341Z,44.80
2018-08-04T10:28:49.070Z,44.80
2018-08-04T10:33:51.781Z,44.40
2018-08-04T10:38:54.517Z,44.30
2018-08-04T10:43:57.275Z,43.50
2018-08-04T10:49:00.005Z,42.50
2018-08-04T10:54:03.000Z,42.10
2018-08-04T10:59:06.104Z,40.20
2018-08-04T11:04:08.840Z,39.90
2018-08-04T11:09:11.901Z,38.10
2018-08-04T11:14:20.426Z,38.00
2018-08-04T11:19:23.158Z,37.90
2018-08-04T11:24:25.917Z,38.40
2018-08-04T11:29:28.677Z,38.80
2018-08-04T11:34:31.385Z,38.60
2018-08-04T11:39:34.128Z,38.60
2018-08-04T11:44:36.849Z,37.50
2018-08-04T11:49:39.553Z,36.40
2018-08-04T11:54:42.270Z,36.60
2018-08-04T11:59:44.993Z,33.80
2018-08-04T12:04:47.846Z,33.70
2018-08-04T12:09:50.573Z,33.50
2018-08-04T12:14:53.304Z,34.50
2018-08-04T12:23:37.773Z,34.30
2018-08-04T12:27:40.501Z,33.50
2018-08-04T12:31:43.225Z,32.40
2018-08-04T12:35:45.929Z,33.20
2018-08-04T12:39:48.605Z,33.60
2018-08-04T12:43:51.341Z,33.70
2018-08-04T12:47:54.414Z,34.40
2018-08-04T12:51:57.176Z,33.70
2018-08-04T12:56:00.402Z,32.90
2018-08-04T13:00:04.048Z,33.00
2018-08-04T13:04:06.884Z,33.00
2018-08-04T13:08:09.649Z,32.10
2018-08-04T13:12:12.397Z,33.20
2018-08-04T13:16:15.112Z,32.80
2018-08-04T13:20:17.849Z,32.00
2018-08-04T13:24:20.581Z,32.00
2018-08-04T13:28:23.281Z,31.20
2018-08-04T13:32:25.996Z,32.30
2018-08-04T13:36:28.717Z,31.60
2018-08-04T13:40:31.708Z,32.20
2018-08-04T13:44:34.437Z,31.40
2018-08-04T13:48:37.566Z,31.10
2018-08-04T13:52:40.297Z,32.60
2018-08-04T14:00:45.646Z,31.40
2018-08-04T14:04:48.370Z,31.70
2018-08-04T14:08:51.113Z,32.70
2018-08-04T14:12:53.821Z,33.20
2018-08-04T14:16:56.610Z,34.60
2018-08-04T14:20:59.353Z,34.50
2018-08-04T14:25:02.089Z,34.50
2018-08-04T14:29:04.901Z,34.10
2018-08-04T14:37:10.190Z,33.10
2018-08-04T14:41:12.901Z,32.60
2018-08-04T14:45:15.726Z,32.60
2018-08-04T14:49:18.507Z,31.80
2018-08-04T14:53:21.297Z,31.20
2018-08-04T14:57:24.081Z,32.00
2018-08-04T15:02:17.052Z,31.00
2018-08-04T15:07:09.905Z,30.20
2018-08-04T15:12:02.785Z,30.10
2018-08-04T15:16:55.734Z,30.10
2018-08-04T15:21:48.717Z,29.50
2018-08-04T15:26:41.714Z,29.60
2018-08-04T15:31:34.675Z,30.20
2018-08-04T15:36:33.323Z,30.00
2018-08-04T15:41:31.237Z,30.00
2018-08-04T15:46:28.993Z,30.20
2018-08-04T15:51:26.726Z,31.20
2018-08-04T15:56:24.498Z,31.20
2018-08-04T16:01:22.233Z,30.70
2018-08-04T16:06:20.021Z,30.00
2018-08-04T16:11:17.777Z,30.00
2018-08-04T16:16:15.548Z,29.40
2018-08-04T16:21:13.251Z,29.40
2018-08-04T16:26:10.958Z,29.00
2018-08-04T16:31:08.665Z,29.10
2018-08-04T16:36:06.401Z,29.30
2018-08-04T16:41:04.109Z,28.80
2018-08-04T16:46:01.857Z,29.50
2018-08-04T16:50:59.598Z,29.90
2018-08-04T16:55:57.445Z,30.30
2018-08-04T17:00:55.213Z,29.40
2018-08-04T17:05:52.966Z,30.10
2018-08-04T17:10:50.715Z,30.40
2018-08-04T17:15:48.469Z,31.20
2018-08-04T17:20:46.225Z,31.60
2018-08-04T17:25:44.065Z,32.90
2018-08-04T17:30:41.854Z,33.80
2018-08-04T17:35:39.601Z,33.90
2018-08-04T17:40:37.331Z,34.50
2018-08-04T17:45:35.054Z,33.80
2018-08-04T17:50:32.753Z,33.20
2018-08-04T17:55:30.492Z,35.70
2018-08-04T18:00:28.222Z,38.60
2018-08-04T18:05:25.973Z,39.60
2018-08-04T18:10:23.707Z,39.70
2018-08-04T18:15:21.457Z,40.00
2018-08-04T18:20:19.309Z,40.80
2018-08-04T18:25:17.045Z,40.60
2018-08-04T18:30:14.746Z,42.00
2018-08-04T18:35:24.494Z,43.50
2018-08-04T18:40:22.207Z,43.60
2018-08-04T18:45:19.942Z,45.60
2018-08-04T18:50:17.661Z,45.90
2018-08-04T18:55:16.429Z,46.20
2018-08-04T19:00:14.161Z,46.30
2018-08-04T19:05:11.861Z,46.80
2018-08-04T19:10:09.605Z,48.70
2018-08-04T19:15:11.282Z,49.10
2018-08-04T19:20:09.035Z,50.20
2018-08-04T19:25:06.922Z,50.60
2018-08-04T19:30:05.622Z,51.00
2018-08-04T19:35:04.054Z,50.80
